sensor_id;sensor_type;location;lat;lon;timestamp;pressure;altitude;pressure_sealevel;temperature;humidity
2875;BME280;1445;52.600;13.328;2023-04-22T00:02:25;100831.47;;;13.40;100.00
2875;BME280;1445;52.600;13.328;2023-04-22T00:04:51;100827.53;;;13.32;100.00
2875;BME280;1445;52.600;13.328;2023-04-22T00:07:17;100812.88;;;13.32;100.00
2875;BME280;1445;52.600;13.328;2023-04-22T00:09:42;100817.09;;;13.29;100.00
2875;BME280;1445;52.600;13.328;2023-04-22T00:12:08;100817.41;;;13.28;100.00
2875;BME280;1445;52.600;13.328;2023-04-22T00:14:36;100812.50;;;13.25;100.00
2875;BME280;1445;52.600;13.328;2023-04-22T00:17:01;100805.44;;;13.19;100.00
2875;BME280;1445;52.600;13.328;2023-04-22T00:19:27;100801.84;;;13.18;100.00
2875;BME280;1445;52.600;13.328;2023-04-22T00:21:52;100797.47;;;13.17;100.00
2875;BME280;1445;52.600;13.328;2023-04-22T00:24:18;100793.88;;;13.17;100.00
2875;BME280;1445;52.600;13.328;2023-04-22T00:26:44;100798.09;;;13.14;100.00
2875;BME280;1445;52.600;13.328;2023-04-22T00:29:09;100793.81;;;13.08;100.00
2875;BME280;1445;52.600;13.328;2023-04-22T00:31:35;100789.91;;;13.09;100.00
2875;BME280;1445;52.600;13.328;2023-04-22T00:34:00;100793.81;;;13.08;100.00
2875;BME280;1445;52.600;13.328;2023-04-22T00:36:26;100794.34;;;13.10;100.00
2875;BME280;1445;52.600;13.328;2023-04-22T00:38:52;100786.47;;;13.03;100.00
2875;BME280;1445;52.600;13.328;2023-04-22T00:41:18;100788.44;;;13.03;100.00
2875;BME280;1445;52.600;13.328;2023-04-22T00:43:44;100778.47;;;13.02;100.00
2875;BME280;1445;52.600;13.328;2023-04-22T00:46:10;100779.63;;;13.01;100.00
2875;BME280;1445;52.600;13.328;2023-04-22T00:48:38;100777.63;;;12.93;100.00
2875;BME280;1445;52.600;13.328;2023-04-22T00:51:04;100782.47;;;12.87;100.00
2875;BME280;1445;52.600;13.328;2023-04-22T00:53:30;100782.44;;;12.78;100.00
2875;BME280;1445;52.600;13.328;2023-04-22T00:55:55;100781.28;;;12.79;100.00
2875;BME280;1445;52.600;13.328;2023-04-22T00:58:22;100771.00;;;12.71;100.00
2875;BME280;1445;52.600;13.328;2023-04-22T01:00:49;100774.06;;;12.70;100.00
2875;BME280;1445;52.600;13.328;2023-04-22T01:03:15;100774.06;;;12.70;100.00
2875;BME280;1445;52.600;13.328;2023-04-22T01:05:41;100784.13;;;12.65;100.00
2875;BME280;1445;52.600;13.328;2023-04-22T01:08:06;100774.50;;;12.63;100.00
2875;BME280;1445;52.600;13.328;2023-04-22T01:10:32;100774.00;;;12.61;100.00
2875;BME280;1445;52.600;13.328;2023-04-22T01:12:57;100773.63;;;12.54;100.00
2875;BME280;1445;52.600;13.328;2023-04-22T01:15:23;100762.19;;;12.47;100.00
2875;BME280;1445;52.600;13.328;2023-04-22T01:17:48;100769.69;;;12.46;100.00
2875;BME280;1445;52.600;13.328;2023-04-22T01:20:15;100772.56;;;12.41;100.00
2875;BME280;1445;52.600;13.328;2023-04-22T01:22:41;100769.72;;;12.32;100.00
2875;BME280;1445;52.600;13.328;2023-04-22T01:25:09;100763.69;;;12.30;100.00
2875;BME280;1445;52.600;13.328;2023-04-22T01:27:35;100762.88;;;12.30;100.00
2875;BME280;1445;52.600;13.328;2023-04-22T01:30:02;100755.19;;;12.27;100.00
2875;BME280;1445;52.600;13.328;2023-04-22T01:32:28;100759.09;;;12.26;100.00
2875;BME280;1445;52.600;13.328;2023-04-22T01:34:55;100759.91;;;12.26;100.00
2875;BME280;1445;52.600;13.328;2023-04-22T01:37:21;100755.19;;;12.27;100.00
2875;BME280;1445;52.600;13.328;2023-04-22T01:39:47;100756.63;;;12.24;100.00
2875;BME280;1445;52.600;13.328;2023-04-22T01:42:13;100758.09;;;12.22;100.00
2875;BME280;1445;52.600;13.328;2023-04-22T01:44:39;100746.84;;;12.18;100.00
2875;BME280;1445;52.600;13.328;2023-04-22T01:47:04;100748.47;;;12.19;100.00
2875;BME280;1445;52.600;13.328;2023-04-22T01:49:30;100750.72;;;12.17;100.00
2875;BME280;1445;52.600;13.328;2023-04-22T01:51:56;100749.72;;;12.13;100.00
2875;BME280;1445;52.600;13.328;2023-04-22T01:54:22;100749.19;;;12.11;100.00
2875;BME280;1445;52.600;13.328;2023-04-22T01:56:52;100743.66;;;12.11;100.00
2875;BME280;1445;52.600;13.328;2023-04-22T01:59:18;100737.94;;;12.07;100.00
2875;BME280;1445;52.600;13.328;2023-04-22T02:01:44;100740.53;;;12.04;100.00
2875;BME280;1445;52.600;13.328;2023-04-22T02:04:09;100742.78;;;12.02;100.00
2875;BME280;1445;52.600;13.328;2023-04-22T02:06:34;100731.75;;;12.02;100.00
2875;BME280;1445;52.600;13.328;2023-04-22T02:09:01;100728.41;;;11.91;100.00
2875;BME280;1445;52.600;13.328;2023-04-22T02:11:26;100731.34;;;11.94;100.00
2875;BME280;1445;52.600;13.328;2023-04-22T02:13:51;100732.31;;;11.90;100.00
2875;BME280;1445;52.600;13.328;2023-04-22T02:16:17;100734.34;;;11.84;100.00
2875;BME280;1445;52.600;13.328;2023-04-22T02:18:42;100729.53;;;11.76;100.00
2875;BME280;1445;52.600;13.328;2023-04-22T02:21:08;100725.72;;;11.72;100.00
2875;BME280;1445;52.600;13.328;2023-04-22T02:23:34;100719.19;;;11.68;100.00
2875;BME280;1445;52.600;13.328;2023-04-22T02:26:00;100713.00;;;11.62;100.00
2875;BME280;1445;52.600;13.328;2023-04-22T02:28:27;100705.75;;;11.53;100.00
2875;BME280;1445;52.600;13.328;2023-04-22T02:30:52;100711.88;;;11.50;100.00
2875;BME280;1445;52.600;13.328;2023-04-22T02:33:18;100708.09;;;11.45;100.00
2875;BME280;1445;52.600;13.328;2023-04-22T02:35:43;100702.88;;;11.44;100.00
2875;BME280;1445;52.600;13.328;2023-04-22T02:38:09;100712.28;;;11.43;100.00
2875;BME280;1445;52.600;13.328;2023-04-22T02:40:35;100706.06;;;11.37;100.00
2875;BME280;1445;52.600;13.328;2023-04-22T02:43:00;100699.22;;;11.35;100.00
2875;BME280;1445;52.600;13.328;2023-04-22T02:45:25;100706.47;;;11.31;100.00
2875;BME280;1445;52.600;13.328;2023-04-22T02:47:51;100702.78;;;11.35;100.00
2875;BME280;1445;52.600;13.328;2023-04-22T02:50:16;100696.75;;;11.33;100.00
2875;BME280;1445;52.600;13.328;2023-04-22T02:52:42;100698.69;;;11.33;100.00
2875;BME280;1445;52.600;13.328;2023-04-22T02:55:07;100707.28;;;11.31;100.00
2875;BME280;1445;52.600;13.328;2023-04-22T02:57:33;100704.53;;;11.31;100.00
2875;BME280;1445;52.600;13.328;2023-04-22T02:59:59;100705.66;;;11.30;100.00
2875;BME280;1445;52.600;13.328;2023-04-22T03:02:25;100706.28;;;11.27;100.00
2875;BME280;1445;52.600;13.328;2023-04-22T03:04:51;100703.00;;;11.25;100.00
2875;BME280;1445;52.600;13.328;2023-04-22T03:07:18;100704.81;;;11.16;100.00
2875;BME280;1445;52.600;13.328;2023-04-22T03:09:44;100704.81;;;11.16;100.00
2875;BME280;1445;52.600;13.328;2023-04-22T03:12:09;100698.91;;;11.09;100.00
2875;BME280;1445;52.600;13.328;2023-04-22T03:14:34;100704.00;;;11.02;100.00
2875;BME280;1445;52.600;13.328;2023-04-22T03:17:00;100696.66;;;10.97;100.00
2875;BME280;1445;52.600;13.328;2023-04-22T03:19:25;100695.09;;;10.91;100.00
2875;BME280;1445;52.600;13.328;2023-04-22T03:21:51;100701.16;;;10.93;100.00
2875;BME280;1445;52.600;13.328;2023-04-22T03:24:16;100695.44;;;10.89;100.00
2875;BME280;1445;52.600;13.328;2023-04-22T03:26:41;100694.50;;;10.94;100.00
2875;BME280;1445;52.600;13.328;2023-04-22T03:29:07;100689.69;;;10.86;100.00
2875;BME280;1445;52.600;13.328;2023-04-22T03:31:32;100695.94;;;10.78;100.00
2875;BME280;1445;52.600;13.328;2023-04-22T03:33:58;100693.19;;;10.78;100.00
2875;BME280;1445;52.600;13.328;2023-04-22T03:36:23;100696.31;;;10.71;100.00
2875;BME280;1445;52.600;13.328;2023-04-22T03:38:48;100694.38;;;10.71;100.00
2875;BME280;1445;52.600;13.328;2023-04-22T03:41:14;100696.41;;;10.66;100.00
2875;BME280;1445;52.600;13.328;2023-04-22T03:43:39;100696.19;;;10.62;100.00
2875;BME280;1445;52.600;13.328;2023-04-22T03:46:06;100694.56;;;10.61;100.00
2875;BME280;1445;52.600;13.328;2023-04-22T03:48:31;100701.50;;;10.59;100.00
2875;BME280;1445;52.600;13.328;2023-04-22T03:51:00;100700.06;;;10.61;100.00
2875;BME280;1445;52.600;13.328;2023-04-22T03:53:26;100697.59;;;10.60;100.00
2875;BME280;1445;52.600;13.328;2023-04-22T03:55:52;100703.22;;;10.55;100.00
2875;BME280;1445;52.600;13.328;2023-04-22T03:58:18;100690.56;;;10.54;100.00
2875;BME280;1445;52.600;13.328;2023-04-22T04:00:43;100701.06;;;10.51;100.00
2875;BME280;1445;52.600;13.328;2023-04-22T04:03:08;100697.28;;;10.47;100.00
2875;BME280;1445;52.600;13.328;2023-04-22T04:05:35;100696.25;;;10.43;100.00
2875;BME280;1445;52.600;13.328;2023-04-22T04:08:00;100691.84;;;10.42;100.00
2875;BME280;1445;52.600;13.328;2023-04-22T04:10:26;100693.50;;;10.43;100.00
2875;BME280;1445;52.600;13.328;2023-04-22T04:12:51;100690.75;;;10.43;100.00
2875;BME280;1445;52.600;13.328;2023-04-22T04:15:17;100697.59;;;10.46;100.00
2875;BME280;1445;52.600;13.328;2023-04-22T04:17:48;100699.72;;;10.49;100.00
2875;BME280;1445;52.600;13.328;2023-04-22T04:20:14;100699.66;;;10.54;100.00
2875;BME280;1445;52.600;13.328;2023-04-22T04:22:40;100699.34;;;10.56;100.00
2875;BME280;1445;52.600;13.328;2023-04-22T04:25:07;100698.13;;;10.62;100.00
2875;BME280;1445;52.600;13.328;2023-04-22T04:27:32;100697.59;;;10.60;100.00
2875;BME280;1445;52.600;13.328;2023-04-22T04:29:59;100694.34;;;10.58;100.00
2875;BME280;1445;52.600;13.328;2023-04-22T04:32:24;100681.69;;;10.57;100.00
2875;BME280;1445;52.600;13.328;2023-04-22T04:34:49;100695.38;;;10.62;100.00
2875;BME280;1445;52.600;13.328;2023-04-22T04:37:16;100692.84;;;10.65;100.00
2875;BME280;1445;52.600;13.328;2023-04-22T04:39:42;100688.94;;;10.66;100.00
2875;BME280;1445;52.600;13.328;2023-04-22T04:42:08;100685.91;;;10.68;100.00
2875;BME280;1445;52.600;13.328;2023-04-22T04:44:34;100683.63;;;10.70;100.00
2875;BME280;1445;52.600;13.328;2023-04-22T04:47:00;100690.41;;;10.78;100.00
2875;BME280;1445;52.600;13.328;2023-04-22T04:49:25;100692.03;;;10.79;100.00
2875;BME280;1445;52.600;13.328;2023-04-22T04:51:51;100690.19;;;10.88;100.00
2875;BME280;1445;52.600;13.328;2023-04-22T04:54:16;100690.41;;;10.91;100.00
2875;BME280;1445;52.600;13.328;2023-04-22T04:56:42;100694.22;;;10.95;100.00
2875;BME280;1445;52.600;13.328;2023-04-22T04:59:07;100696.34;;;10.98;100.00
2875;BME280;1445;52.600;13.328;2023-04-22T05:01:33;100700.44;;;11.01;100.00
2875;BME280;1445;52.600;13.328;2023-04-22T05:03:59;100689.91;;;11.03;100.00
2875;BME280;1445;52.600;13.328;2023-04-22T05:06:24;100697.38;;;11.03;100.00
2875;BME280;1445;52.600;13.328;2023-04-22T05:08:51;100697.78;;;11.10;100.00
2875;BME280;1445;52.600;13.328;2023-04-22T05:11:16;100693.09;;;11.10;100.00
2875;BME280;1445;52.600;13.328;2023-04-22T05:13:42;100702.72;;;11.13;100.00
2875;BME280;1445;52.600;13.328;2023-04-22T05:16:07;100697.59;;;11.20;100.00
2875;BME280;1445;52.600;13.328;2023-04-22T05:18:33;100694.50;;;11.21;100.00
2875;BME280;1445;52.600;13.328;2023-04-22T05:20:58;100694.91;;;11.29;100.00
2875;BME280;1445;52.600;13.328;2023-04-22T05:23:27;100686.63;;;11.42;100.00
2875;BME280;1445;52.600;13.328;2023-04-22T05:25:54;100685.69;;;11.47;100.00
2875;BME280;1445;52.600;13.328;2023-04-22T05:28:19;100684.59;;;11.48;100.00
2875;BME280;1445;52.600;13.328;2023-04-22T05:30:44;100691.41;;;11.51;100.00
2875;BME280;1445;52.600;13.328;2023-04-22T05:33:10;100685.59;;;11.52;100.00
2875;BME280;1445;52.600;13.328;2023-04-22T05:35:35;100690.31;;;11.52;100.00
2875;BME280;1445;52.600;13.328;2023-04-22T05:38:01;100689.25;;;11.47;100.00
2875;BME280;1445;52.600;13.328;2023-04-22T05:40:27;100696.63;;;11.52;100.00
2875;BME280;1445;52.600;13.328;2023-04-22T05:42:52;100692.44;;;11.55;100.00
2875;BME280;1445;52.600;13.328;2023-04-22T05:45:18;100699.59;;;11.56;100.00
2875;BME280;1445;52.600;13.328;2023-04-22T05:47:43;100692.31;;;11.60;100.00
2875;BME280;1445;52.600;13.328;2023-04-22T05:50:09;100695.16;;;11.68;100.00
2875;BME280;1445;52.600;13.328;2023-04-22T05:52:34;100691.69;;;11.77;100.00
2875;BME280;1445;52.600;13.328;2023-04-22T05:54:59;100694.88;;;11.84;100.00
2875;BME280;1445;52.600;13.328;2023-04-22T05:57:25;100699.63;;;11.92;100.00
2875;BME280;1445;52.600;13.328;2023-04-22T05:59:51;100700.34;;;11.98;100.00
2875;BME280;1445;52.600;13.328;2023-04-22T06:02:16;100691.31;;;12.06;100.00
2875;BME280;1445;52.600;13.328;2023-04-22T06:04:42;100688.31;;;12.16;100.00
2875;BME280;1445;52.600;13.328;2023-04-22T06:07:07;100690.81;;;12.26;100.00
2875;BME280;1445;52.600;13.328;2023-04-22T06:09:33;100692.06;;;12.43;100.00
2875;BME280;1445;52.600;13.328;2023-04-22T06:11:58;100690.88;;;12.57;100.00
2875;BME280;1445;52.600;13.328;2023-04-22T06:14:23;100686.50;;;12.65;100.00
2875;BME280;1445;52.600;13.328;2023-04-22T06:16:49;100690.97;;;12.75;100.00
2875;BME280;1445;52.600;13.328;2023-04-22T06:19:16;100695.91;;;12.86;100.00
2875;BME280;1445;52.600;13.328;2023-04-22T06:21:42;100688.47;;;12.96;100.00
2875;BME280;1445;52.600;13.328;2023-04-22T06:24:07;100696.16;;;13.07;100.00
2875;BME280;1445;52.600;13.328;2023-04-22T06:26:35;100700.41;;;13.13;100.00
2875;BME280;1445;52.600;13.328;2023-04-22T06:29:01;100702.59;;;13.25;100.00
2875;BME280;1445;52.600;13.328;2023-04-22T06:31:30;100696.59;;;13.32;100.00
2875;BME280;1445;52.600;13.328;2023-04-22T06:33:55;100696.13;;;13.39;100.00
2875;BME280;1445;52.600;13.328;2023-04-22T06:36:20;100703.31;;;13.48;100.00
2875;BME280;1445;52.600;13.328;2023-04-22T06:38:46;100705.97;;;13.62;100.00
2875;BME280;1445;52.600;13.328;2023-04-22T06:41:12;100696.03;;;13.70;100.00
2875;BME280;1445;52.600;13.328;2023-04-22T06:43:37;100697.16;;;13.77;100.00
2875;BME280;1445;52.600;13.328;2023-04-22T06:46:03;100690.47;;;13.78;100.00
2875;BME280;1445;52.600;13.328;2023-04-22T06:48:28;100698.47;;;13.89;100.00
2875;BME280;1445;52.600;13.328;2023-04-22T06:50:54;100689.00;;;13.90;100.00
2875;BME280;1445;52.600;13.328;2023-04-22T06:53:19;100683.16;;;14.00;100.00
2875;BME280;1445;52.600;13.328;2023-04-22T06:55:45;100691.66;;;14.12;100.00
2875;BME280;1445;52.600;13.328;2023-04-22T06:58:10;100691.47;;;14.26;100.00
2875;BME280;1445;52.600;13.328;2023-04-22T07:00:36;100683.13;;;14.35;100.00
2875;BME280;1445;52.600;13.328;2023-04-22T07:03:01;100691.31;;;14.22;100.00
2875;BME280;1445;52.600;13.328;2023-04-22T07:05:26;100684.94;;;14.30;100.00
2875;BME280;1445;52.600;13.328;2023-04-22T07:07:52;100691.78;;;14.33;100.00
2875;BME280;1445;52.600;13.328;2023-04-22T07:10:17;100690.94;;;14.41;100.00
2875;BME280;1445;52.600;13.328;2023-04-22T07:12:43;100689.97;;;14.46;100.00
2875;BME280;1445;52.600;13.328;2023-04-22T07:15:09;100683.94;;;14.52;100.00
2875;BME280;1445;52.600;13.328;2023-04-22T07:17:35;100677.53;;;14.69;100.00
2875;BME280;1445;52.600;13.328;2023-04-22T07:20:00;100684.50;;;14.84;100.00
2875;BME280;1445;52.600;13.328;2023-04-22T07:22:26;100681.72;;;14.93;100.00
2875;BME280;1445;52.600;13.328;2023-04-22T07:24:51;100683.13;;;15.08;100.00
2875;BME280;1445;52.600;13.328;2023-04-22T07:27:16;100684.28;;;15.07;100.00
2875;BME280;1445;52.600;13.328;2023-04-22T07:29:42;100689.34;;;15.04;100.00
2875;BME280;1445;52.600;13.328;2023-04-22T07:32:07;100683.25;;;15.11;100.00
2875;BME280;1445;52.600;13.328;2023-04-22T07:34:33;100679.97;;;15.18;100.00
2875;BME280;1445;52.600;13.328;2023-04-22T07:36:58;100684.34;;;15.27;100.00
2875;BME280;1445;52.600;13.328;2023-04-22T07:39:24;100690.63;;;15.37;100.00
2875;BME280;1445;52.600;13.328;2023-04-22T07:41:49;100683.75;;;15.43;100.00
2875;BME280;1445;52.600;13.328;2023-04-22T07:44:15;100686.03;;;15.41;100.00
2875;BME280;1445;52.600;13.328;2023-04-22T07:46:48;100679.09;;;15.56;100.00
2875;BME280;1445;52.600;13.328;2023-04-22T07:49:14;100681.00;;;15.64;100.00
2875;BME280;1445;52.600;13.328;2023-04-22T07:51:41;100680.38;;;15.67;100.00
2875;BME280;1445;52.600;13.328;2023-04-22T07:54:06;100666.66;;;15.83;100.00
2875;BME280;1445;52.600;13.328;2023-04-22T07:56:32;100670.94;;;16.01;99.53
2875;BME280;1445;52.600;13.328;2023-04-22T07:58:58;100667.03;;;16.14;98.98
2875;BME280;1445;52.600;13.328;2023-04-22T08:01:23;100656.94;;;16.31;99.27
2875;BME280;1445;52.600;13.328;2023-04-22T08:03:49;100650.00;;;16.49;98.36
2875;BME280;1445;52.600;13.328;2023-04-22T08:06:14;100655.75;;;16.65;92.02
2875;BME280;1445;52.600;13.328;2023-04-22T08:08:39;100643.16;;;16.80;92.08
2875;BME280;1445;52.600;13.328;2023-04-22T08:11:05;100645.97;;;16.92;87.27
2875;BME280;1445;52.600;13.328;2023-04-22T08:13:31;100639.47;;;17.00;82.70
2875;BME280;1445;52.600;13.328;2023-04-22T08:15:56;100639.69;;;17.07;82.90
2875;BME280;1445;52.600;13.328;2023-04-22T08:18:21;100643.41;;;17.24;85.99
2875;BME280;1445;52.600;13.328;2023-04-22T08:20:47;100645.47;;;17.39;78.16
2875;BME280;1445;52.600;13.328;2023-04-22T08:23:12;100640.00;;;17.42;72.97
2875;BME280;1445;52.600;13.328;2023-04-22T08:25:38;100647.22;;;17.44;70.32
2875;BME280;1445;52.600;13.328;2023-04-22T08:28:03;100638.72;;;17.52;71.25
2875;BME280;1445;52.600;13.328;2023-04-22T08:30:29;100640.44;;;17.69;68.00
2875;BME280;1445;52.600;13.328;2023-04-22T08:32:54;100634.59;;;17.86;68.28
2875;BME280;1445;52.600;13.328;2023-04-22T08:35:20;100634.75;;;17.78;62.78
2875;BME280;1445;52.600;13.328;2023-04-22T08:37:45;100631.25;;;17.81;64.81
2875;BME280;1445;52.600;13.328;2023-04-22T08:40:11;100636.44;;;17.95;66.12
2875;BME280;1445;52.600;13.328;2023-04-22T08:42:37;100627.88;;;18.16;67.50
2875;BME280;1445;52.600;13.328;2023-04-22T08:45:03;100639.16;;;18.35;65.07
2875;BME280;1445;52.600;13.328;2023-04-22T08:47:30;100636.72;;;18.33;62.26
2875;BME280;1445;52.600;13.328;2023-04-22T08:49:58;100635.13;;;18.48;67.24
2875;BME280;1445;52.600;13.328;2023-04-22T08:52:26;100634.88;;;18.53;62.34
2875;BME280;1445;52.600;13.328;2023-04-22T08:54:51;100625.50;;;18.62;61.81
2875;BME280;1445;52.600;13.328;2023-04-22T08:57:17;100637.53;;;18.78;62.86
2875;BME280;1445;52.600;13.328;2023-04-22T08:59:43;100637.44;;;18.90;61.32
2875;BME280;1445;52.600;13.328;2023-04-22T09:02:15;100630.03;;;18.98;60.70
2875;BME280;1445;52.600;13.328;2023-04-22T09:04:42;100628.50;;;19.16;60.58
2875;BME280;1445;52.600;13.328;2023-04-22T09:07:09;100624.25;;;19.22;58.51
2875;BME280;1445;52.600;13.328;2023-04-22T09:09:36;100619.53;;;19.42;60.04
2875;BME280;1445;52.600;13.328;2023-04-22T09:12:01;100630.66;;;19.58;57.77
2875;BME280;1445;52.600;13.328;2023-04-22T09:14:27;100621.72;;;19.68;55.82
2875;BME280;1445;52.600;13.328;2023-04-22T09:16:56;100615.47;;;19.94;56.16
2875;BME280;1445;52.600;13.328;2023-04-22T09:19:23;100605.84;;;20.11;54.46
2875;BME280;1445;52.600;13.328;2023-04-22T09:21:49;100617.72;;;20.27;53.04
2875;BME280;1445;52.600;13.328;2023-04-22T09:24:15;100621.59;;;20.62;52.14
2875;BME280;1445;52.600;13.328;2023-04-22T09:26:42;100610.47;;;20.46;52.54
2875;BME280;1445;52.600;13.328;2023-04-22T09:29:12;100608.22;;;20.75;50.83
2875;BME280;1445;52.600;13.328;2023-04-22T09:31:38;100592.63;;;21.00;50.08
2875;BME280;1445;52.600;13.328;2023-04-22T09:34:04;100593.91;;;21.33;48.88
2875;BME280;1445;52.600;13.328;2023-04-22T09:36:31;100601.00;;;21.50;47.41
2875;BME280;1445;52.600;13.328;2023-04-22T09:39:06;100601.78;;;21.50;46.93
2875;BME280;1445;52.600;13.328;2023-04-22T09:41:33;100596.44;;;21.38;46.78
2875;BME280;1445;52.600;13.328;2023-04-22T09:44:00;100595.19;;;21.65;45.81
2875;BME280;1445;52.600;13.328;2023-04-22T09:46:28;100588.84;;;21.72;46.03
2875;BME280;1445;52.600;13.328;2023-04-22T09:48:55;100574.44;;;22.07;45.16
2875;BME280;1445;52.600;13.328;2023-04-22T09:51:21;100571.97;;;22.36;43.59
2875;BME280;1445;52.600;13.328;2023-04-22T09:54:00;100574.28;;;22.68;43.32
2875;BME280;1445;52.600;13.328;2023-04-22T09:56:47;100571.78;;;23.07;42.11
2875;BME280;1445;52.600;13.328;2023-04-22T10:01:51;100559.16;;;23.42;38.79
2875;BME280;1445;52.600;13.328;2023-04-22T10:04:17;100558.72;;;23.40;38.45
2875;BME280;1445;52.600;13.328;2023-04-22T10:06:46;100554.34;;;23.49;38.20
2875;BME280;1445;52.600;13.328;2023-04-22T10:09:12;100556.31;;;23.38;37.00
2875;BME280;1445;52.600;13.328;2023-04-22T10:11:38;100549.09;;;23.44;36.29
2875;BME280;1445;52.600;13.328;2023-04-22T10:14:05;100560.03;;;23.60;36.22
2875;BME280;1445;52.600;13.328;2023-04-22T10:16:32;100556.25;;;23.24;37.35
2875;BME280;1445;52.600;13.328;2023-04-22T10:19:00;100550.75;;;22.90;37.16
2875;BME280;1445;52.600;13.328;2023-04-22T10:21:29;100549.78;;;23.23;35.95
2875;BME280;1445;52.600;13.328;2023-04-22T10:23:57;100535.72;;;23.23;36.31
2875;BME280;1445;52.600;13.328;2023-04-22T10:26:55;100535.13;;;23.66;35.79
2875;BME280;1445;52.600;13.328;2023-04-22T10:29:22;100534.66;;;23.49;35.04
2875;BME280;1445;52.600;13.328;2023-04-22T10:34:35;100517.50;;;23.83;35.16
2875;BME280;1445;52.600;13.328;2023-04-22T10:37:11;100525.63;;;24.06;33.61
2875;BME280;1445;52.600;13.328;2023-04-22T10:39:39;100518.41;;;24.09;33.18
2875;BME280;1445;52.600;13.328;2023-04-22T10:42:11;100518.41;;;24.16;33.79
2875;BME280;1445;52.600;13.328;2023-04-22T10:44:53;100511.97;;;24.15;33.16
2875;BME280;1445;52.600;13.328;2023-04-22T10:47:32;100501.97;;;24.50;33.52
2875;BME280;1445;52.600;13.328;2023-04-22T10:50:18;100515.59;;;24.19;31.75
2875;BME280;1445;52.600;13.328;2023-04-22T10:52:58;100503.94;;;24.96;31.01
2875;BME280;1445;52.600;13.328;2023-04-22T10:55:25;100513.22;;;24.86;31.20
2875;BME280;1445;52.600;13.328;2023-04-22T10:58:21;100501.53;;;24.84;29.91
2875;BME280;1445;52.600;13.328;2023-04-22T11:00:51;100504.63;;;25.39;30.37
2875;BME280;1445;52.600;13.328;2023-04-22T11:03:29;100497.41;;;25.31;29.27
2875;BME280;1445;52.600;13.328;2023-04-22T11:08:43;100506.25;;;25.33;29.30
2875;BME280;1445;52.600;13.328;2023-04-22T11:11:09;100493.44;;;25.11;29.26
2875;BME280;1445;52.600;13.328;2023-04-22T11:13:35;100493.00;;;25.19;28.83
2875;BME280;1445;52.600;13.328;2023-04-22T11:16:01;100495.84;;;25.12;29.60
2875;BME280;1445;52.600;13.328;2023-04-22T11:18:27;100491.59;;;25.70;29.67
2875;BME280;1445;52.600;13.328;2023-04-22T11:20:52;100479.44;;;25.84;28.62
2875;BME280;1445;52.600;13.328;2023-04-22T11:23:23;100470.16;;;25.87;28.26
2875;BME280;1445;52.600;13.328;2023-04-22T11:25:56;100467.84;;;26.24;27.79
2875;BME280;1445;52.600;13.328;2023-04-22T11:28:22;100479.44;;;25.84;27.66
2875;BME280;1445;52.600;13.328;2023-04-22T11:30:48;100484.59;;;24.91;29.37
2875;BME280;1445;52.600;13.328;2023-04-22T11:33:14;100493.09;;;24.62;29.38
2875;BME280;1445;52.600;13.328;2023-04-22T11:35:40;100478.50;;;25.21;28.04
2875;BME280;1445;52.600;13.328;2023-04-22T11:38:07;100480.41;;;25.49;28.09
2875;BME280;1445;52.600;13.328;2023-04-22T11:40:35;100478.22;;;25.85;27.53
2875;BME280;1445;52.600;13.328;2023-04-22T11:43:04;100477.72;;;26.01;27.82
2875;BME280;1445;52.600;13.328;2023-04-22T11:45:31;100472.28;;;26.73;27.07
2875;BME280;1445;52.600;13.328;2023-04-22T11:47:58;100477.56;;;26.23;26.90
2875;BME280;1445;52.600;13.328;2023-04-22T11:50:26;100475.38;;;25.85;25.95
2875;BME280;1445;52.600;13.328;2023-04-22T11:55:24;100462.78;;;26.94;25.83
2875;BME280;1445;52.600;13.328;2023-04-22T12:00:34;100444.91;;;27.39;25.39
2875;BME280;1445;52.600;13.328;2023-04-22T12:03:06;100447.31;;;27.02;25.92
2875;BME280;1445;52.600;13.328;2023-04-22T12:05:40;100443.59;;;27.77;25.48
2875;BME280;1445;52.600;13.328;2023-04-22T12:08:17;100462.50;;;26.81;26.02
2875;BME280;1445;52.600;13.328;2023-04-22T12:10:53;100448.44;;;28.27;24.28
2875;BME280;1445;52.600;13.328;2023-04-22T12:13:31;100440.94;;;28.17;24.45
2875;BME280;1445;52.600;13.328;2023-04-22T12:15:59;100457.63;;;28.12;24.18
2875;BME280;1445;52.600;13.328;2023-04-22T12:18:39;100438.94;;;28.41;24.23
2875;BME280;1445;52.600;13.328;2023-04-22T12:21:09;100443.47;;;28.35;23.23
2875;BME280;1445;52.600;13.328;2023-04-22T12:23:44;100437.03;;;29.01;23.12
2875;BME280;1445;52.600;13.328;2023-04-22T12:26:29;100431.84;;;29.36;22.58
2875;BME280;1445;52.600;13.328;2023-04-22T12:28:56;100435.38;;;28.81;21.72
2875;BME280;1445;52.600;13.328;2023-04-22T12:31:22;100443.13;;;28.06;22.68
2875;BME280;1445;52.600;13.328;2023-04-22T12:33:48;100422.06;;;28.97;22.46
2875;BME280;1445;52.600;13.328;2023-04-22T12:36:14;100441.25;;;28.23;21.66
2875;BME280;1445;52.600;13.328;2023-04-22T12:38:40;100442.81;;;27.08;22.56
2875;BME280;1445;52.600;13.328;2023-04-22T12:41:06;100438.34;;;27.45;22.26
2875;BME280;1445;52.600;13.328;2023-04-22T12:43:33;100432.09;;;26.55;24.77
2875;BME280;1445;52.600;13.328;2023-04-22T12:46:01;100430.28;;;27.71;23.20
2875;BME280;1445;52.600;13.328;2023-04-22T12:48:27;100429.13;;;27.95;23.36
2875;BME280;1445;52.600;13.328;2023-04-22T12:50:52;100423.47;;;27.95;23.04
2875;BME280;1445;52.600;13.328;2023-04-22T12:53:20;100407.47;;;28.56;22.82
2875;BME280;1445;52.600;13.328;2023-04-22T12:55:45;100423.69;;;29.38;21.27
2875;BME280;1445;52.600;13.328;2023-04-22T12:58:11;100421.03;;;28.21;22.88
2875;BME280;1445;52.600;13.328;2023-04-22T13:00:36;100416.63;;;29.27;21.25
2875;BME280;1445;52.600;13.328;2023-04-22T13:03:01;100403.22;;;30.32;20.68
2875;BME280;1445;52.600;13.328;2023-04-22T13:05:27;100408.19;;;30.90;19.90